Hartford, Connecticut
Traffic Map
Current Weather Conditions
Hartford, Connecticut
Clear
Clear
10°
Feels Like: 10°
Wind Chill: 10° Ceiling: Unl
Heat Index: 10° Visibility: 10mi
Dew Point: Wind: 3mph
Humidity: 71% Direction: 170° (S)
Pressure: 29.98in Gusts: 0mph
Raw Report DataKHFD 202253Z 17003KT 10SM CLR 10/05 A2998 RMK AO2 SLP153 T01000050 $
Traffic Incident Summary
Active as of:
Severity:
Category:
InformationThere was an issue retrieving the traffic information for this location. Please try a different location or try again shortly.
Advertisements
Track Severe Weather on mobile